Flag for Greece

Past Weather in 36°59'25.8"N, 26°55'35.9"E, Greece — Yesterday and Last 2 Weeks

Currently: 73 °F. Sunny. (Weather station: Kos Airport, Greece). See more current weather

Past Weather in 36°59'25.8"N, 26°55'35.9"E — Graph

°F

36°59'25.8"N, 26°55'35.9"E Temperature Yesterday

Maximum temperature yesterday: 95 °F (at 12:50 pm)
Minimum temperature yesterday: 73 °F (at 9:20 pm)
Average temperature yesterday: 82 °F

High & Low Weather Summary for the Past Weeks

 TemperatureHumidityPressure
High100 °F (Jun 13, 3:50 pm)94% (Jun 23, 2:20 am)29.95 "Hg (Jun 23, 2:20 am)
Low70 °F (Jun 10, 3:50 am)16% (Jun 13, 5:50 pm)29.62 "Hg (Jun 22, 6:50 am)
Average82 °F52%29.78 "Hg
* Reported Jun 8 7:20 pm — Jun 23 7:20 pm, 36°59'25.8"N, 26°55'35.9"E. Weather by CustomWeather, © 2024

Note: Actual official high and low records may vary slightly from our data, if they occured in-between our weather recording intervals... More about our weather records

36°59'25.8"N, 26°55'35.9"E Weather History for the Previous 24 Hours

Scroll right to see more
 ConditionsComfort  
Time TempWeatherWind HumidityBarometerVisibility
7:20 pm
Sun, Jun 23
75 °FSunny.13 mph78%29.68 "Hg10 mi
6:50 pm75 °FSunny.14 mph78%29.68 "Hg10 mi
6:20 pm77 °FSunny.16 mph79%29.68 "Hg10 mi
5:20 pm77 °FSunny.17 mph74%29.68 "Hg10 mi
4:50 pm79 °FSunny.15 mph70%29.68 "Hg10 mi
4:20 pm81 °FSunny.13 mph62%29.68 "Hg10 mi
3:50 pm81 °FSunny.13 mph62%29.68 "Hg10 mi
3:20 pm82 °FSunny.14 mph55%29.68 "Hg10 mi
2:50 pm82 °FSunny.14 mph55%29.68 "Hg10 mi
2:20 pm81 °FSunny.14 mph62%29.68 "Hg10 mi
1:50 pm82 °FSunny.13 mph58%29.68 "Hg10 mi
1:20 pm82 °FSunny.14 mph58%29.68 "Hg10 mi
12:50 pm82 °FSunny.14 mph58%29.68 "Hg10 mi
12:20 pm81 °FSunny.14 mph62%29.68 "Hg10 mi
11:50 am81 °FSunny.16 mph62%29.68 "Hg10 mi
11:20 am81 °FSunny.16 mph66%29.68 "Hg10 mi
10:50 am79 °FSunny.16 mph65%29.65 "Hg10 mi
10:20 am81 °FSunny.12 mph66%29.65 "Hg10 mi
9:50 am77 °FSunny.13 mph74%29.65 "Hg10 mi
9:20 am79 °FSunny.12 mph70%29.65 "Hg10 mi
8:50 am77 °FSunny.15 mph79%29.65 "Hg10 mi
8:20 am77 °FSunny.18 mph79%29.65 "Hg10 mi
7:50 am75 °FSunny.10 mph78%29.65 "Hg10 mi
7:20 am73 °FSunny.12 mph83%29.62 "Hg10 mi
6:50 am72 °FSunny.9 mph94%29.62 "Hg10 mi
6:20 am72 °FSunny.9 mph88%29.62 "Hg10 mi
5:50 am72 °FClear.8 mph88%29.62 "Hg10 mi
5:20 am72 °FClear.10 mph94%29.62 "Hg10 mi
4:50 am72 °FClear.12 mph94%29.62 "Hg10 mi
4:20 am72 °FClear.12 mph94%29.62 "Hg10 mi
3:50 am72 °FClear.12 mph94%29.62 "Hg10 mi
3:20 am72 °FClear.12 mph94%29.62 "Hg10 mi
2:50 am72 °FClear.10 mph88%29.62 "Hg10 mi
2:20 am72 °FClear.10 mph94%29.62 "Hg10 mi
1:50 am73 °FClear.9 mph83%29.62 "Hg10 mi
1:20 am73 °FClear.9 mph83%29.65 "Hg10 mi
12:50 am73 °FClear.10 mph83%29.65 "Hg10 mi
12:20 am73 °FClear.10 mph83%29.65 "Hg10 mi
11:50 pm
Sat, Jun 22
73 °FClear.13 mph83%29.65 "Hg10 mi
11:20 pm73 °FClear.14 mph83%29.65 "Hg10 mi
10:50 pm73 °FClear.14 mph83%29.65 "Hg10 mi
10:20 pm73 °FClear.14 mph83%29.65 "Hg10 mi
9:50 pm73 °FClear.14 mph83%29.65 "Hg10 mi
9:20 pm73 °FClear.16 mph83%29.62 "Hg10 mi
8:50 pm75 °FClear.16 mph78%29.62 "Hg10 mi
8:20 pm75 °FSunny.17 mph78%29.62 "Hg10 mi
Weather by CustomWeather, © 2024

See weather overview